Time;durP1;ratioP1;P1;durP2;ratioP2;P2;SDS_P1;SDS_P2;PMS_P1;PMS_P2;Temp;Humidity;BMP_temperature;BMP_pressure;BME280_temperature;BME280_humidity;BME280_pressure;Samples;Min_cycle;Max_cycle;Signal;HPM_P1;HPM_P2
2023/08/20 00:02:05;;;;;;;;;1.80;1.80;;;;;;;;5027698;28;8820;-82
2023/08/20 00:04:33;;;;;;;;;1.00;1.00;;;;;;;;5030017;28;8875;-82
2023/08/20 00:07:02;;;;;;;;;1.20;1.20;;;;;;;;5030104;28;8874;-82
2023/08/20 00:09:30;;;;;;;;;1.00;1.00;;;;;;;;5029855;28;8863;-83
2023/08/20 00:11:57;;;;;;;;;1.00;1.00;;;;;;;;5031401;28;8864;-82
2023/08/20 00:15:04;;;;;;;;;0.80;0.80;;;;;;;;5032344;28;9670;-82
2023/08/20 00:17:36;;;;;;;;;2.60;2.60;;;;;;;;5029975;28;8860;-82
2023/08/20 00:20:09;;;;;;;;;1.40;1.40;;;;;;;;5029543;28;8870;-82
2023/08/20 00:22:37;;;;;;;;;3.40;0.80;;;;;;;;5028878;28;8986;-82
2023/08/20 00:25:06;;;;;;;;;2.00;2.00;;;;;;;;5029469;28;9661;-82
2023/08/20 00:27:33;;;;;;;;;2.60;1.00;;;;;;;;5028798;28;9598;-81
2023/08/20 00:30:02;;;;;;;;;1.60;1.60;;;;;;;;5029451;28;8848;-81
2023/08/20 00:32:30;;;;;;;;;1.00;1.00;;;;;;;;5028217;28;8852;-81
2023/08/20 00:34:57;;;;;;;;;2.20;0.80;;;;;;;;5028333;28;9035;-82
2023/08/20 00:37:24;;;;;;;;;1.20;1.20;;;;;;;;5022508;28;8890;-82
2023/08/20 00:39:51;;;;;;;;;2.60;2.60;;;;;;;;5029721;28;8949;-82
2023/08/20 00:42:18;;;;;;;;;2.00;0.80;;;;;;;;5028823;28;8876;-82
2023/08/20 00:44:46;;;;;;;;;2.60;2.60;;;;;;;;5028784;28;8878;-82
2023/08/20 00:47:15;;;;;;;;;1.00;1.00;;;;;;;;5028411;28;8849;-81
2023/08/20 00:49:43;;;;;;;;;1.80;1.00;;;;;;;;5030123;28;8902;-82
2023/08/20 00:52:11;;;;;;;;;1.20;1.20;;;;;;;;5027434;28;8890;-82
2023/08/20 00:54:39;;;;;;;;;1.20;1.20;;;;;;;;5027936;28;8957;-81
2023/08/20 00:57:08;;;;;;;;;1.80;1.80;;;;;;;;5028859;28;8870;-82
2023/08/20 00:59:35;;;;;;;;;4.80;2.80;;;;;;;;5029018;28;8852;-82
2023/08/20 01:02:03;;;;;;;;;2.80;1.00;;;;;;;;5017570;28;8815;-82
2023/08/20 01:04:31;;;;;;;;;1.80;0.20;;;;;;;;5029925;28;8884;-82
2023/08/20 01:07:07;;;;;;;;;0.20;0.20;;;;;;;;5031611;28;8880;-82
2023/08/20 01:09:42;;;;;;;;;1.60;1.60;;;;;;;;5034076;28;8870;-82
2023/08/20 01:12:11;;;;;;;;;2.00;2.00;;;;;;;;5033790;28;9002;-81
2023/08/20 01:14:39;;;;;;;;;2.40;2.00;;;;;;;;5034144;28;8848;-82
2023/08/20 01:17:06;;;;;;;;;2.00;2.00;;;;;;;;5034272;28;8859;-83
2023/08/20 01:19:35;;;;;;;;;1.20;1.20;;;;;;;;5032699;28;8975;-82
2023/08/20 01:22:23;;;;;;;;;2.40;1.40;;;;;;;;5028931;28;8856;-82
2023/08/20 01:25:00;;;;;;;;;0.20;0.20;;;;;;;;5018216;28;8999;-81
2023/08/20 01:27:42;;;;;;;;;2.00;2.00;;;;;;;;5028267;28;8879;-82
2023/08/20 01:30:11;;;;;;;;;1.75;1.75;;;;;;;;5027964;28;8945;-82
2023/08/20 01:32:41;;;;;;;;;1.00;1.00;;;;;;;;5027392;28;8852;-82
2023/08/20 01:35:09;;;;;;;;;1.80;1.80;;;;;;;;5028053;28;8868;-82
2023/08/20 01:37:37;;;;;;;;;2.00;2.00;;;;;;;;5021156;28;8914;-82
2023/08/20 01:40:07;;;;;;;;;0.75;0.75;;;;;;;;5026409;28;8880;-82
2023/08/20 01:42:34;;;;;;;;;1.60;1.60;;;;;;;;5028190;28;8987;-81
2023/08/20 01:45:01;;;;;;;;;2.00;2.00;;;;;;;;5028115;28;9650;-82
2023/08/20 01:47:30;;;;;;;;;2.00;0.80;;;;;;;;5029456;28;8882;-82
2023/08/20 01:49:57;;;;;;;;;2.00;2.00;;;;;;;;5030886;28;9003;-82
2023/08/20 01:52:25;;;;;;;;;1.20;1.20;;;;;;;;5029058;28;8860;-82
2023/08/20 01:54:55;;;;;;;;;2.75;2.75;;;;;;;;5027841;28;9640;-82
2023/08/20 01:57:22;;;;;;;;;2.20;1.00;;;;;;;;5027027;28;8852;-81
2023/08/20 01:59:49;;;;;;;;;1.80;1.60;;;;;;;;5027916;28;8875;-82
2023/08/20 02:02:17;;;;;;;;;1.75;1.25;;;;;;;;5027187;28;8808;-81
2023/08/20 02:04:45;;;;;;;;;1.20;1.20;;;;;;;;5027124;28;9713;-81
2023/08/20 02:07:12;;;;;;;;;1.20;1.00;;;;;;;;5029369;28;8957;-81
2023/08/20 02:09:39;;;;;;;;;0.80;0.80;;;;;;;;5032020;28;8876;-82
2023/08/20 02:12:07;;;;;;;;;5.00;2.20;;;;;;;;5031445;28;8990;-82
2023/08/20 02:14:35;;;;;;;;;2.00;2.00;;;;;;;;5031709;28;8979;-82
2023/08/20 02:17:05;;;;;;;;;2.60;1.80;;;;;;;;5032135;28;8882;-82
2023/08/20 02:19:32;;;;;;;;;1.60;1.60;;;;;;;;5031565;28;8864;-81
2023/08/20 02:22:01;;;;;;;;;0.75;0.75;;;;;;;;5031791;28;8860;-81
2023/08/20 02:24:28;;;;;;;;;2.50;1.50;;;;;;;;5030571;28;8891;-82
2023/08/20 02:26:55;;;;;;;;;2.00;2.00;;;;;;;;5032231;28;8858;-81
2023/08/20 02:29:22;;;;;;;;;2.00;2.00;;;;;;;;5031096;28;8895;-81
2023/08/20 02:31:50;;;;;;;;;1.50;0.00;;;;;;;;5030931;28;8823;-82
2023/08/20 02:34:17;;;;;;;;;1.50;1.00;;;;;;;;5030768;28;8848;-81
2023/08/20 02:36:44;;;;;;;;;1.00;0.80;;;;;;;;5031576;28;8840;-82
2023/08/20 02:39:14;;;;;;;;;3.00;1.50;;;;;;;;5031432;28;8878;-82
2023/08/20 02:41:41;;;;;;;;;1.25;1.25;;;;;;;;5032461;28;8893;-82
2023/08/20 02:44:08;;;;;;;;;0.40;0.20;;;;;;;;5032912;28;8884;-82
2023/08/20 02:46:38;;;;;;;;;3.00;1.75;;;;;;;;5035029;28;8852;-82
2023/08/20 02:49:05;;;;;;;;;1.75;1.50;;;;;;;;5035005;28;8880;-80
2023/08/20 02:51:32;;;;;;;;;2.00;2.00;;;;;;;;5036295;28;8885;-81
2023/08/20 02:53:59;;;;;;;;;1.50;1.50;;;;;;;;5035386;28;8852;-82
2023/08/20 02:56:30;;;;;;;;;0.75;0.75;;;;;;;;5034465;28;8903;-82
2023/08/20 02:59:00;;;;;;;;;2.25;1.00;;;;;;;;5030486;28;9075;-82
2023/08/20 03:01:28;;;;;;;;;2.50;1.00;;;;;;;;5030810;28;8780;-82
2023/08/20 03:03:55;;;;;;;;;1.75;1.75;;;;;;;;5031192;28;8901;-82
2023/08/20 03:06:22;;;;;;;;;1.00;1.00;;;;;;;;5030096;28;8867;-81
2023/08/20 03:08:50;;;;;;;;;0.25;0.25;;;;;;;;5030838;28;8860;-82
2023/08/20 03:11:17;;;;;;;;;1.00;1.00;;;;;;;;5030227;28;8874;-82
2023/08/20 03:13:46;;;;;;;;;0.75;0.75;;;;;;;;5030783;28;8865;-82
2023/08/20 03:16:13;;;;;;;;;2.75;1.75;;;;;;;;5030735;28;8873;-82
2023/08/20 03:18:41;;;;;;;;;1.00;1.00;;;;;;;;5030498;28;8856;-82
2023/08/20 03:21:08;;;;;;;;;1.50;1.50;;;;;;;;5029978;28;8882;-81
2023/08/20 03:23:35;;;;;;;;;2.00;2.00;;;;;;;;5033390;28;8860;-82
2023/08/20 03:26:05;;;;;;;;;1.25;1.25;;;;;;;;5031761;28;9599;-82
2023/08/20 03:28:32;;;;;;;;;1.75;1.75;;;;;;;;5030968;28;8852;-82
2023/08/20 03:31:02;;;;;;;;;2.75;2.75;;;;;;;;5029665;28;8845;-81
2023/08/20 03:33:30;;;;;;;;;1.00;1.00;;;;;;;;5030572;28;8967;-82
2023/08/20 03:35:57;;;;;;;;;2.50;1.00;;;;;;;;5030462;28;8860;-83
2023/08/20 03:38:24;;;;;;;;;1.00;1.00;;;;;;;;5030546;28;8868;-83
2023/08/20 03:40:51;;;;;;;;;1.50;1.50;;;;;;;;5029923;28;8906;-83
2023/08/20 03:43:19;;;;;;;;;1.00;1.00;;;;;;;;5030142;28;9631;-83
2023/08/20 03:45:46;;;;;;;;;2.00;2.00;;;;;;;;5030068;28;9006;-83
2023/08/20 03:48:14;;;;;;;;;2.25;2.00;;;;;;;;5028660;28;8982;-82
2023/08/20 03:50:42;;;;;;;;;1.50;1.00;;;;;;;;5029563;28;8980;-83
2023/08/20 03:53:09;;;;;;;;;2.00;2.00;;;;;;;;5029337;28;8913;-84
2023/08/20 03:55:36;;;;;;;;;1.25;1.25;;;;;;;;5029764;28;8847;-84
2023/08/20 03:58:06;;;;;;;;;1.75;1.75;;;;;;;;5029720;28;8848;-83
2023/08/20 04:00:35;;;;;;;;;1.00;1.00;;;;;;;;5029387;28;8769;-82
2023/08/20 04:03:03;;;;;;;;;2.00;2.00;;;;;;;;5029292;28;8887;-83
2023/08/20 04:05:37;;;;;;;;;2.75;0.75;;;;;;;;5029161;28;8864;-80
2023/08/20 04:08:06;;;;;;;;;2.00;2.00;;;;;;;;5029320;28;8864;-83
2023/08/20 04:10:33;;;;;;;;;0.50;0.50;;;;;;;;5028378;28;8848;-82
2023/08/20 04:13:04;;;;;;;;;1.75;1.75;;;;;;;;5028742;28;8856;-82
2023/08/20 04:15:31;;;;;;;;;2.00;1.25;;;;;;;;5029363;28;8894;-82
2023/08/20 04:17:58;;;;;;;;;1.25;1.25;;;;;;;;5029064;28;8880;-82
2023/08/20 04:20:26;;;;;;;;;1.00;1.00;;;;;;;;5032601;28;8880;-82
2023/08/20 04:22:55;;;;;;;;;2.00;2.00;;;;;;;;5033885;28;8894;-82
2023/08/20 04:25:22;;;;;;;;;2.00;2.00;;;;;;;;5033952;28;8859;-81
2023/08/20 04:27:49;;;;;;;;;0.25;0.25;;;;;;;;5034551;28;8867;-81
2023/08/20 04:30:16;;;;;;;;;2.00;1.75;;;;;;;;5032842;28;8934;-82
2023/08/20 04:32:44;;;;;;;;;1.25;1.25;;;;;;;;5029120;28;8868;-82
2023/08/20 04:35:11;;;;;;;;;2.75;0.75;;;;;;;;5028469;28;8886;-82
2023/08/20 04:37:38;;;;;;;;;1.25;1.25;;;;;;;;5028526;28;8903;-82
2023/08/20 04:40:09;;;;;;;;;1.25;1.25;;;;;;;;5028444;28;8998;-81
2023/08/20 04:42:36;;;;;;;;;1.50;1.50;;;;;;;;5028295;28;8884;-82
2023/08/20 04:45:04;;;;;;;;;1.75;1.75;;;;;;;;5028325;28;9751;-82
2023/08/20 04:47:31;;;;;;;;;2.25;2.25;;;;;;;;5027967;28;8848;-83
2023/08/20 04:49:59;;;;;;;;;1.75;1.75;;;;;;;;5029612;28;8876;-82
2023/08/20 04:52:26;;;;;;;;;2.00;2.00;;;;;;;;5028255;28;8864;-82
2023/08/20 04:54:53;;;;;;;;;3.00;2.50;;;;;;;;5028799;28;8913;-82
2023/08/20 04:57:22;;;;;;;;;0.25;0.00;;;;;;;;5028102;28;8872;-82
2023/08/20 04:59:50;;;;;;;;;0.75;0.75;;;;;;;;5028293;28;8849;-83
2023/08/20 05:02:19;;;;;;;;;3.00;3.00;;;;;;;;5016675;28;8797;-82
2023/08/20 05:04:46;;;;;;;;;1.75;1.75;;;;;;;;5028383;28;9750;-82
2023/08/20 05:07:14;;;;;;;;;3.75;2.00;;;;;;;;5028182;28;8859;-82
2023/08/20 05:09:41;;;;;;;;;1.75;1.25;;;;;;;;5028236;28;8850;-82
2023/08/20 05:12:09;;;;;;;;;2.75;2.75;;;;;;;;5028073;28;8848;-83
2023/08/20 05:14:37;;;;;;;;;3.75;2.25;;;;;;;;5027783;28;9003;-82
2023/08/20 05:17:07;;;;;;;;;2.75;1.75;;;;;;;;5028485;28;8848;-82
2023/08/20 05:19:34;;;;;;;;;2.75;2.75;;;;;;;;5027728;28;8864;-82
2023/08/20 05:22:02;;;;;;;;;3.75;2.00;;;;;;;;5028081;28;8852;-83
2023/08/20 05:24:29;;;;;;;;;1.00;1.00;;;;;;;;5028103;28;8886;-83
2023/08/20 05:27:07;;;;;;;;;3.25;3.00;;;;;;;;5027484;28;8864;-83
2023/08/20 05:29:37;;;;;;;;;2.50;2.50;;;;;;;;5027663;28;8868;-82
2023/08/20 05:32:05;;;;;;;;;1.75;1.75;;;;;;;;5027874;28;8796;-83
2023/08/20 05:34:34;;;;;;;;;2.25;2.25;;;;;;;;5028226;28;8868;-82
2023/08/20 05:37:02;;;;;;;;;1.00;1.00;;;;;;;;5019058;28;8867;-82
2023/08/20 05:39:37;;;;;;;;;2.00;2.00;;;;;;;;5027447;28;8880;-82
2023/08/20 05:42:05;;;;;;;;;1.00;1.00;;;;;;;;5027042;28;8872;-83
2023/08/20 05:44:33;;;;;;;;;3.00;3.00;;;;;;;;5027997;28;8955;-82
2023/08/20 05:47:01;;;;;;;;;2.25;2.25;;;;;;;;5027708;28;8872;-82
2023/08/20 05:49:29;;;;;;;;;0.75;0.75;;;;;;;;5028420;28;8872;-83
2023/08/20 05:51:56;;;;;;;;;3.00;3.00;;;;;;;;5029138;28;8868;-81
2023/08/20 05:54:23;;;;;;;;;3.75;3.75;;;;;;;;5032358;28;8860;-82
2023/08/20 05:56:50;;;;;;;;;3.00;3.00;;;;;;;;5033512;28;8908;-82
2023/08/20 05:59:17;;;;;;;;;4.75;4.75;;;;;;;;5033147;28;8856;-82
2023/08/20 06:01:46;;;;;;;;;4.00;3.40;;;;;;;;5032774;28;8799;-83
2023/08/20 06:04:15;;;;;;;;;4.75;3.75;;;;;;;;5032563;28;8879;-81
2023/08/20 06:06:42;;;;;;;;;4.00;4.00;;;;;;;;5028268;28;8851;-82
2023/08/20 06:09:09;;;;;;;;;2.60;2.60;;;;;;;;5026986;28;8868;-81
2023/08/20 06:11:36;;;;;;;;;6.00;3.80;;;;;;;;5026579;28;8887;-82
2023/08/20 06:14:04;;;;;;;;;5.40;5.00;;;;;;;;5027154;28;8871;-71
2023/08/20 06:16:31;;;;;;;;;3.40;3.40;;;;;;;;5027884;28;8947;-79
2023/08/20 06:18:59;;;;;;;;;3.80;3.80;;;;;;;;5029261;28;9637;-70
2023/08/20 06:21:27;;;;;;;;;9.00;4.80;;;;;;;;5026508;28;8867;-70
2023/08/20 06:23:56;;;;;;;;;4.60;3.80;;;;;;;;5026779;28;8875;-71
2023/08/20 06:26:23;;;;;;;;;4.40;4.40;;;;;;;;5026328;28;8855;-71
2023/08/20 06:28:50;;;;;;;;;3.60;2.40;;;;;;;;5026743;28;8865;-71
2023/08/20 06:31:19;;;;;;;;;2.40;2.40;;;;;;;;5025709;28;8812;-70
2023/08/20 06:33:47;;;;;;;;;4.80;3.20;;;;;;;;5026966;28;8864;-71
2023/08/20 06:36:14;;;;;;;;;5.20;5.20;;;;;;;;5024009;28;8879;-71
2023/08/20 06:38:43;;;;;;;;;6.60;2.60;;;;;;;;5020504;28;9013;-70
2023/08/20 06:41:10;;;;;;;;;2.20;2.20;;;;;;;;5026251;28;8880;-70
2023/08/20 06:43:37;;;;;;;;;4.20;4.20;;;;;;;;5026251;28;8883;-69
2023/08/20 06:46:04;;;;;;;;;3.20;3.00;;;;;;;;5026615;28;8845;-68
2023/08/20 06:48:32;;;;;;;;;3.20;2.40;;;;;;;;5026235;28;8862;-68
2023/08/20 06:50:59;;;;;;;;;4.40;3.80;;;;;;;;5013890;28;8860;-68
2023/08/20 06:53:26;;;;;;;;;3.00;3.00;;;;;;;;5028244;28;8887;-70
2023/08/20 06:55:55;;;;;;;;;3.20;3.20;;;;;;;;5030382;28;9303;-69
2023/08/20 06:58:23;;;;;;;;;4.60;4.60;;;;;;;;5029399;28;8894;-68
2023/08/20 07:00:50;;;;;;;;;9.60;5.80;;;;;;;;5030171;28;8799;-70
2023/08/20 07:03:17;;;;;;;;;3.20;3.20;;;;;;;;5029299;28;8867;-70
2023/08/20 07:05:44;;;;;;;;;6.60;4.40;;;;;;;;5030530;28;8885;-68
2023/08/20 07:08:11;;;;;;;;;4.60;4.60;;;;;;;;5029303;28;8856;-71
2023/08/20 07:10:38;;;;;;;;;4.60;4.00;;;;;;;;5030047;28;8856;-69
2023/08/20 07:13:07;;;;;;;;;4.40;3.80;;;;;;;;5029666;28;8864;-70
2023/08/20 07:15:34;;;;;;;;;2.80;2.80;;;;;;;;5030545;28;8864;-72
2023/08/20 07:18:01;;;;;;;;;4.80;3.40;;;;;;;;5030421;28;9638;-69
2023/08/20 07:20:28;;;;;;;;;4.20;3.80;;;;;;;;5030046;28;8860;-70
2023/08/20 07:22:56;;;;;;;;;5.60;4.60;;;;;;;;5029170;28;8856;-70
2023/08/20 07:25:23;;;;;;;;;6.00;4.60;;;;;;;;5029315;28;8848;-73
2023/08/20 07:27:50;;;;;;;;;5.00;5.00;;;;;;;;5029755;28;8844;-72
2023/08/20 07:30:19;;;;;;;;;4.00;3.60;;;;;;;;5032203;28;8844;-70
2023/08/20 07:32:46;;;;;;;;;5.00;5.00;;;;;;;;5033718;28;8864;-70
2023/08/20 07:35:13;;;;;;;;;4.20;4.20;;;;;;;;5032952;28;8992;-70
2023/08/20 07:37:40;;;;;;;;;6.00;5.40;;;;;;;;5023896;28;8851;-70
2023/08/20 07:40:09;;;;;;;;;6.20;3.20;;;;;;;;5031859;28;8874;-71
2023/08/20 07:42:37;;;;;;;;;4.20;4.20;;;;;;;;5028615;28;8844;-72
2023/08/20 07:45:07;;;;;;;;;4.80;4.80;;;;;;;;5029511;28;8876;-71
2023/08/20 07:47:36;;;;;;;;;5.40;5.40;;;;;;;;5028964;28;8852;-70
2023/08/20 07:50:04;;;;;;;;;5.60;5.60;;;;;;;;5028960;28;8864;-70
2023/08/20 07:52:31;;;;;;;;;3.00;3.00;;;;;;;;5029046;28;8895;-72
2023/08/20 07:54:59;;;;;;;;;4.00;4.00;;;;;;;;5028581;28;9781;-70
2023/08/20 07:57:26;;;;;;;;;5.00;5.00;;;;;;;;5028503;28;9405;-69
2023/08/20 07:59:53;;;;;;;;;3.40;2.80;;;;;;;;5028840;28;8888;-70
2023/08/20 08:02:20;;;;;;;;;5.00;4.80;;;;;;;;5028879;28;8812;-70
2023/08/20 08:04:49;;;;;;;;;3.80;3.80;;;;;;;;5028555;28;8899;-70
2023/08/20 08:07:16;;;;;;;;;4.00;3.40;;;;;;;;5028982;28;8872;-70
2023/08/20 08:09:45;;;;;;;;;3.80;3.80;;;;;;;;5028375;28;8870;-74
2023/08/20 08:12:12;;;;;;;;;3.20;3.20;;;;;;;;5028219;28;8998;-71
2023/08/20 08:14:39;;;;;;;;;2.20;2.20;;;;;;;;5028400;28;8861;-71
2023/08/20 08:17:07;;;;;;;;;3.40;3.40;;;;;;;;5028519;28;8884;-71
2023/08/20 08:19:34;;;;;;;;;4.00;3.80;;;;;;;;5028775;28;8864;-73
2023/08/20 08:22:03;;;;;;;;;3.20;3.20;;;;;;;;5028811;28;8882;-70
2023/08/20 08:24:30;;;;;;;;;2.80;2.80;;;;;;;;5027786;28;8849;-69
2023/08/20 08:26:57;;;;;;;;;4.20;4.20;;;;;;;;5028230;28;8867;-71
2023/08/20 08:29:27;;;;;;;;;5.00;5.00;;;;;;;;5028006;28;8862;-71
2023/08/20 08:31:54;;;;;;;;;0.60;0.60;;;;;;;;5027597;28;8782;-71
2023/08/20 08:34:21;;;;;;;;;3.60;3.60;;;;;;;;5027656;28;8864;-70
2023/08/20 08:36:48;;;;;;;;;3.40;3.40;;;;;;;;5028532;28;8842;-71
2023/08/20 08:39:19;;;;;;;;;2.80;2.80;;;;;;;;5027623;28;8868;-71
2023/08/20 08:41:48;;;;;;;;;3.60;3.60;;;;;;;;5028529;28;8897;-70
2023/08/20 08:44:15;;;;;;;;;2.00;2.00;;;;;;;;5027924;28;9658;-71
2023/08/20 08:46:43;;;;;;;;;2.40;2.40;;;;;;;;5028448;28;8868;-70
2023/08/20 08:49:10;;;;;;;;;2.20;2.00;;;;;;;;5027283;28;8848;-73
2023/08/20 08:51:38;;;;;;;;;4.00;2.80;;;;;;;;5028415;28;8865;-70
2023/08/20 08:54:06;;;;;;;;;2.80;2.80;;;;;;;;5028055;28;8935;-71
2023/08/20 08:56:34;;;;;;;;;3.00;3.00;;;;;;;;5029031;28;8868;-69
2023/08/20 08:59:03;;;;;;;;;3.40;3.20;;;;;;;;5028116;28;9625;-72
2023/08/20 09:01:30;;;;;;;;;3.20;2.80;;;;;;;;5027433;28;8811;-77
2023/08/20 09:03:58;;;;;;;;;2.80;2.80;;;;;;;;5029930;28;8872;-70
2023/08/20 09:06:25;;;;;;;;;2.20;2.20;;;;;;;;5030671;28;8906;-71
2023/08/20 09:09:06;;;;;;;;;6.00;3.60;;;;;;;;5020434;28;8848;-71
2023/08/20 09:11:37;;;;;;;;;4.00;2.20;;;;;;;;5031459;28;8887;-72
2023/08/20 09:14:04;;;;;;;;;2.40;2.00;;;;;;;;5031792;28;8864;-71
2023/08/20 09:16:32;;;;;;;;;4.00;2.20;;;;;;;;5026955;28;8882;-70
2023/08/20 09:19:01;;;;;;;;;2.40;2.20;;;;;;;;5027999;28;8855;-74
2023/08/20 09:21:29;;;;;;;;;4.20;4.20;;;;;;;;5026701;28;8860;-71
2023/08/20 09:23:57;;;;;;;;;2.80;2.80;;;;;;;;5026811;28;8868;-70
2023/08/20 09:26:24;;;;;;;;;3.80;3.80;;;;;;;;5026731;28;8900;-71
2023/08/20 09:28:55;;;;;;;;;3.00;1.00;;;;;;;;5027128;28;8844;-70
2023/08/20 09:31:23;;;;;;;;;5.40;3.60;;;;;;;;5026591;28;8800;-73
2023/08/20 09:33:51;;;;;;;;;4.00;2.60;;;;;;;;5027334;28;8852;-72
2023/08/20 09:36:33;;;;;;;;;3.00;3.00;;;;;;;;5023360;28;8867;-71
2023/08/20 09:39:00;;;;;;;;;2.80;2.80;;;;;;;;5023522;28;8828;-71
2023/08/20 09:41:27;;;;;;;;;3.00;3.00;;;;;;;;5027420;28;9308;-72
2023/08/20 09:43:58;;;;;;;;;3.00;3.00;;;;;;;;5027298;28;8848;-72
2023/08/20 09:46:27;;;;;;;;;4.00;4.00;;;;;;;;5027384;28;9237;-74
2023/08/20 09:48:57;;;;;;;;;4.00;3.00;;;;;;;;5026992;28;8898;-71
2023/08/20 09:51:27;;;;;;;;;2.20;2.20;;;;;;;;5026773;28;8892;-72
2023/08/20 09:54:01;;;;;;;;;2.00;2.00;;;;;;;;5026941;28;8863;-80
2023/08/20 09:56:30;;;;;;;;;2.40;2.40;;;;;;;;5027164;28;9650;-73
2023/08/20 09:58:59;;;;;;;;;3.00;3.00;;;;;;;;5026694;28;8852;-73
2023/08/20 10:01:28;;;;;;;;;3.40;3.00;;;;;;;;5026413;28;8842;-72
2023/08/20 10:03:55;;;;;;;;;2.40;2.40;;;;;;;;5027010;28;9666;-74
2023/08/20 10:06:23;;;;;;;;;2.40;2.40;;;;;;;;5027129;28;8876;-73
2023/08/20 10:08:52;;;;;;;;;3.20;2.60;;;;;;;;5026911;28;8876;-80
2023/08/20 10:11:19;;;;;;;;;2.60;2.60;;;;;;;;5027521;28;8852;-78
2023/08/20 10:13:47;;;;;;;;;3.00;3.00;;;;;;;;5015621;28;8840;-81
2023/08/20 10:16:19;;;;;;;;;1.00;1.00;;;;;;;;5026401;28;8856;-80
2023/08/20 10:18:47;;;;;;;;;2.20;2.20;;;;;;;;5016580;28;8856;-78
2023/08/20 10:21:14;;;;;;;;;2.00;2.00;;;;;;;;5025112;28;9646;-78
2023/08/20 10:23:42;;;;;;;;;2.40;2.20;;;;;;;;5027382;28;8857;-81
2023/08/20 10:26:11;;;;;;;;;2.20;2.20;;;;;;;;5027055;28;8856;-79
2023/08/20 10:28:41;;;;;;;;;2.40;2.40;;;;;;;;5030462;28;9737;-79
2023/08/20 10:31:09;;;;;;;;;2.40;2.40;;;;;;;;5030488;28;8987;-81
2023/08/20 10:33:39;;;;;;;;;1.20;1.20;;;;;;;;5032750;28;8867;-81
2023/08/20 10:36:11;;;;;;;;;2.20;2.20;;;;;;;;5020018;28;8848;-78
2023/08/20 10:38:39;;;;;;;;;1.60;1.60;;;;;;;;5034158;28;8864;-81
2023/08/20 10:41:09;;;;;;;;;1.00;1.00;;;;;;;;5035819;28;8874;-81
2023/08/20 10:43:38;;;;;;;;;0.60;0.60;;;;;;;;5036540;28;8873;-82
2023/08/20 10:46:14;;;;;;;;;1.40;1.40;;;;;;;;5035548;28;8930;-80
2023/08/20 10:48:43;;;;;;;;;2.00;2.00;;;;;;;;5020831;28;8850;-79
2023/08/20 10:51:12;;;;;;;;;2.80;2.80;;;;;;;;5030639;28;8870;-85
2023/08/20 10:53:40;;;;;;;;;2.00;2.00;;;;;;;;5030220;28;8922;-83
2023/08/20 10:56:13;;;;;;;;;1.20;1.20;;;;;;;;5031064;28;8904;-79
2023/08/20 10:58:43;;;;;;;;;1.20;1.20;;;;;;;;5029786;28;8874;-80
2023/08/20 11:01:21;;;;;;;;;0.80;0.80;;;;;;;;5029436;28;8800;-76
2023/08/20 11:03:50;;;;;;;;;2.80;2.00;;;;;;;;5030100;28;8856;-78
2023/08/20 11:06:19;;;;;;;;;0.00;0.00;;;;;;;;5030015;28;8894;-78
2023/08/20 11:08:47;;;;;;;;;2.00;2.00;;;;;;;;5030071;28;8860;-76
2023/08/20 11:11:14;;;;;;;;;2.00;1.00;;;;;;;;5029943;28;8864;-79
2023/08/20 11:13:42;;;;;;;;;3.80;3.80;;;;;;;;5030165;28;8869;-78
2023/08/20 11:16:10;;;;;;;;;3.00;3.00;;;;;;;;5029688;28;8877;-77
2023/08/20 11:18:37;;;;;;;;;1.00;1.00;;;;;;;;5030064;28;8836;-78
2023/08/20 11:21:11;;;;;;;;;3.00;1.20;;;;;;;;5029709;28;8868;-77
2023/08/20 11:23:39;;;;;;;;;1.40;1.40;;;;;;;;5029996;28;8852;-77
2023/08/20 11:26:07;;;;;;;;;1.00;1.00;;;;;;;;5029878;28;8872;-77
2023/08/20 11:28:34;;;;;;;;;4.00;4.00;;;;;;;;5030366;28;8859;-77
2023/08/20 11:31:03;;;;;;;;;1.00;1.00;;;;;;;;5029511;28;8804;-77
2023/08/20 11:33:30;;;;;;;;;1.20;1.20;;;;;;;;5030325;28;8881;-78
2023/08/20 11:35:58;;;;;;;;;1.20;1.20;;;;;;;;5029595;28;8999;-77
2023/08/20 11:38:26;;;;;;;;;1.60;1.60;;;;;;;;5021353;28;8856;-81
2023/08/20 11:40:57;;;;;;;;;1.00;1.00;;;;;;;;5030569;28;8848;-82
2023/08/20 11:43:24;;;;;;;;;0.00;0.00;;;;;;;;5030496;28;9642;-80
2023/08/20 11:45:54;;;;;;;;;1.00;1.00;;;;;;;;5029853;28;8860;-75
2023/08/20 11:48:21;;;;;;;;;0.80;0.80;;;;;;;;5029019;28;8844;-76
2023/08/20 11:50:49;;;;;;;;;1.80;1.80;;;;;;;;5029767;28;8852;-80
2023/08/20 11:53:19;;;;;;;;;2.60;1.00;;;;;;;;5029293;28;8884;-81
2023/08/20 11:55:47;;;;;;;;;1.60;1.60;;;;;;;;5029054;28;9032;-77
2023/08/20 11:58:15;;;;;;;;;2.00;2.00;;;;;;;;5028939;28;8962;-76
2023/08/20 12:00:42;;;;;;;;;1.00;1.00;;;;;;;;5029867;28;8784;-81
2023/08/20 12:03:11;;;;;;;;;2.00;2.00;;;;;;;;5028248;28;8848;-78
2023/08/20 12:05:38;;;;;;;;;1.60;1.60;;;;;;;;5023100;28;8858;-82
2023/08/20 12:08:06;;;;;;;;;0.60;0.60;;;;;;;;5024967;28;8906;-78
2023/08/20 12:10:34;;;;;;;;;3.00;1.40;;;;;;;;5032450;28;8856;-78
2023/08/20 12:13:03;;;;;;;;;2.00;2.00;;;;;;;;5032190;28;8848;-84
2023/08/20 12:15:31;;;;;;;;;4.80;2.60;;;;;;;;5032890;28;8872;-83
2023/08/20 12:18:04;;;;;;;;;1.20;1.20;;;;;;;;5032870;28;8860;-80
2023/08/20 12:20:33;;;;;;;;;1.00;1.00;;;;;;;;5034003;28;8902;-81
2023/08/20 12:23:05;;;;;;;;;2.00;2.00;;;;;;;;5031840;28;8982;-83
2023/08/20 12:25:34;;;;;;;;;1.00;1.00;;;;;;;;5032300;28;8891;-86
2023/08/20 12:28:03;;;;;;;;;1.40;1.40;;;;;;;;5031849;28;8930;-83
2023/08/20 12:30:31;;;;;;;;;2.40;2.40;;;;;;;;5028946;28;8753;-85
2023/08/20 12:32:58;;;;;;;;;0.20;0.00;;;;;;;;5028483;28;8867;-88
2023/08/20 12:35:26;;;;;;;;;2.00;2.00;;;;;;;;5016376;28;8877;-80
2023/08/20 12:37:53;;;;;;;;;1.80;1.80;;;;;;;;5029020;28;8922;-83
2023/08/20 12:40:20;;;;;;;;;3.00;3.00;;;;;;;;5028517;28;8980;-81
2023/08/20 12:42:47;;;;;;;;;1.00;1.00;;;;;;;;5016484;28;8860;-83
2023/08/20 12:45:16;;;;;;;;;3.80;1.40;;;;;;;;5028701;28;8884;-81
2023/08/20 12:47:43;;;;;;;;;2.00;2.00;;;;;;;;5029158;28;8855;-79
2023/08/20 12:50:13;;;;;;;;;2.40;2.00;;;;;;;;5028015;28;8860;-82
2023/08/20 12:52:43;;;;;;;;;1.00;1.00;;;;;;;;5028714;28;8923;-82
2023/08/20 12:55:10;;;;;;;;;2.20;1.80;;;;;;;;5027853;28;9607;-81
2023/08/20 12:57:37;;;;;;;;;2.40;2.00;;;;;;;;5028626;28;8883;-79
2023/08/20 13:00:10;;;;;;;;;1.00;1.00;;;;;;;;5027892;28;8918;-79
2023/08/20 13:02:40;;;;;;;;;1.60;1.60;;;;;;;;5028382;28;8823;-79
2023/08/20 13:05:09;;;;;;;;;2.40;2.40;;;;;;;;5027764;28;8882;-76
2023/08/20 13:07:36;;;;;;;;;2.00;2.00;;;;;;;;5028090;28;8871;-78
2023/08/20 13:10:04;;;;;;;;;2.00;2.00;;;;;;;;5027853;28;8837;-78
2023/08/20 13:12:37;;;;;;;;;2.20;2.20;;;;;;;;5029830;28;8848;-79
2023/08/20 13:15:08;;;;;;;;;3.00;2.20;;;;;;;;5029533;28;8862;-79
2023/08/20 13:17:38;;;;;;;;;3.00;1.00;;;;;;;;5028626;28;8938;-78
2023/08/20 13:20:09;;;;;;;;;2.00;2.00;;;;;;;;5028080;28;9650;-78
2023/08/20 13:22:36;;;;;;;;;2.00;2.00;;;;;;;;5028387;28;8860;-79
2023/08/20 13:25:04;;;;;;;;;1.20;1.20;;;;;;;;5028600;28;8860;-78
2023/08/20 13:27:35;;;;;;;;;2.00;2.00;;;;;;;;5027452;28;8871;-80
2023/08/20 13:30:03;;;;;;;;;2.40;2.40;;;;;;;;5028403;28;8848;-78
2023/08/20 13:32:30;;;;;;;;;1.80;1.80;;;;;;;;5027064;28;8797;-77
2023/08/20 13:34:59;;;;;;;;;2.00;2.00;;;;;;;;5028059;28;8864;-78
2023/08/20 13:37:26;;;;;;;;;1.20;1.20;;;;;;;;5027040;28;8867;-80
2023/08/20 13:39:53;;;;;;;;;2.60;2.00;;;;;;;;5027981;28;9624;-79
2023/08/20 13:42:20;;;;;;;;;3.00;2.00;;;;;;;;5027237;28;8867;-74
2023/08/20 13:44:47;;;;;;;;;1.60;1.60;;;;;;;;5029216;28;8872;-74
2023/08/20 13:47:14;;;;;;;;;4.20;2.00;;;;;;;;5029824;28;8836;-76
2023/08/20 13:49:42;;;;;;;;;3.80;3.80;;;;;;;;5031031;28;8840;-78
2023/08/20 13:52:10;;;;;;;;;3.20;1.40;;;;;;;;5030398;28;8902;-75
2023/08/20 13:54:40;;;;;;;;;2.00;2.00;;;;;;;;5031789;28;8883;-74
2023/08/20 13:57:07;;;;;;;;;4.00;2.40;;;;;;;;5027728;28;8992;-76
2023/08/20 13:59:34;;;;;;;;;3.20;3.20;;;;;;;;5028902;28;8848;-77
2023/08/20 14:02:02;;;;;;;;;2.00;2.00;;;;;;;;5028369;28;8936;-76
2023/08/20 14:04:29;;;;;;;;;0.00;0.00;;;;;;;;5031852;28;8895;-76
2023/08/20 14:06:56;;;;;;;;;1.00;1.00;;;;;;;;5031892;28;8849;-77
2023/08/20 14:09:25;;;;;;;;;1.60;1.60;;;;;;;;5031135;28;8878;-78
2023/08/20 14:11:52;;;;;;;;;2.20;2.00;;;;;;;;5030073;28;8867;-83
2023/08/20 14:14:19;;;;;;;;;1.00;1.00;;;;;;;;5030150;28;8986;-76
2023/08/20 14:16:46;;;;;;;;;2.00;2.00;;;;;;;;5030909;28;8856;-76
2023/08/20 14:19:13;;;;;;;;;2.00;2.00;;;;;;;;5030961;28;8864;-76
2023/08/20 14:21:41;;;;;;;;;3.40;1.80;;;;;;;;5031387;28;8864;-77
2023/08/20 14:24:08;;;;;;;;;2.00;2.00;;;;;;;;5030833;28;8860;-76
2023/08/20 14:26:38;;;;;;;;;2.00;2.00;;;;;;;;5021244;28;9099;-78
2023/08/20 14:29:05;;;;;;;;;2.20;2.20;;;;;;;;5030847;28;8844;-76
2023/08/20 14:31:32;;;;;;;;;2.60;2.60;;;;;;;;5030944;28;8824;-77
2023/08/20 14:34:00;;;;;;;;;3.00;3.00;;;;;;;;5030255;28;8849;-77
2023/08/20 14:36:28;;;;;;;;;2.20;2.20;;;;;;;;5026909;28;9283;-86
2023/08/20 14:38:55;;;;;;;;;2.60;2.60;;;;;;;;5028904;28;8860;-84
2023/08/20 14:41:22;;;;;;;;;3.60;2.00;;;;;;;;5031027;28;8853;-83
2023/08/20 14:43:53;;;;;;;;;3.00;1.80;;;;;;;;5031627;28;8884;-80
2023/08/20 14:46:22;;;;;;;;;3.00;3.00;;;;;;;;5032464;28;8887;-79
2023/08/20 14:48:49;;;;;;;;;2.00;2.00;;;;;;;;5032867;28;9006;-83
2023/08/20 14:51:17;;;;;;;;;2.80;2.80;;;;;;;;5032399;28;8999;-81
2023/08/20 14:53:44;;;;;;;;;1.20;1.20;;;;;;;;5030706;28;8870;-83
2023/08/20 14:56:11;;;;;;;;;2.40;2.40;;;;;;;;5030408;28;8838;-82
2023/08/20 14:58:41;;;;;;;;;2.60;2.60;;;;;;;;5030355;28;8982;-82
2023/08/20 15:01:12;;;;;;;;;4.20;2.80;;;;;;;;5030435;28;8789;-82
2023/08/20 15:03:39;;;;;;;;;2.20;2.20;;;;;;;;5030786;28;8852;-83
2023/08/20 15:06:10;;;;;;;;;2.40;1.40;;;;;;;;5031530;28;8915;-81